Time;durP1;ratioP1;P1;durP2;ratioP2;P2;SDS_P1;SDS_P2;PMS_P1;PMS_P2;Temp;Humidity;BMP_temperature;BMP_pressure;BME280_temperature;BME280_humidity;BME280_pressure;Samples;Min_cycle;Max_cycle;Signal;HPM_P1;HPM_P2
2021/09/16 00:02:24;;;;;;;18.40;16.50;;;;;;;15.39;76.44;100370.57;227259;1210;138685;-75
2021/09/16 00:07:25;;;;;;;18.00;15.90;;;;;;;15.26;76.68;100364.01;227695;1211;138807;-74
2021/09/16 00:12:28;;;;;;;18.20;16.40;;;;;;;15.22;77.14;100359.15;226767;1210;138942;-74
2021/09/16 00:17:29;;;;;;;19.70;16.60;;;;;;;15.25;76.87;100355.38;226743;1206;139843;-73
2021/09/16 00:22:31;;;;;;;17.60;15.80;;;;;;;15.40;76.54;100350.22;226944;1210;139549;-74
2021/09/16 00:27:33;;;;;;;18.80;16.10;;;;;;;15.50;76.07;100343.09;226815;1210;139695;-72
2021/09/16 00:32:35;;;;;;;17.20;15.50;;;;;;;15.45;76.35;100340.10;226735;1206;138890;-73
2021/09/16 00:37:36;;;;;;;18.40;16.50;;;;;;;15.39;76.72;100337.91;226759;1209;139123;-74
2021/09/16 00:42:38;;;;;;;18.20;16.40;;;;;;;15.40;76.68;100335.34;226701;1211;139312;-73
2021/09/16 00:47:48;;;;;;;18.00;16.10;;;;;;;15.42;76.33;100328.53;227812;1202;138867;-73
2021/09/16 00:52:51;;;;;;;19.70;17.70;;;;;;;15.44;76.34;100322.11;227215;1209;138915;-73
2021/09/16 00:57:56;;;;;;;18.60;16.70;;;;;;;15.41;76.22;100322.64;226792;1210;138725;-73
2021/09/16 01:02:57;;;;;;;21.50;18.20;;;;;;;15.26;76.79;100319.95;226845;1201;138728;-73
2021/09/16 01:07:59;;;;;;;20.60;18.00;;;;;;;15.08;77.42;100320.34;226877;1206;139902;-74
2021/09/16 01:13:01;;;;;;;19.30;17.30;;;;;;;15.22;77.01;100314.67;226815;1210;138904;-73
2021/09/16 01:18:03;;;;;;;19.20;17.30;;;;;;;15.25;76.85;100308.16;227191;1202;139961;-74
2021/09/16 01:23:05;;;;;;;19.80;17.60;;;;;;;15.21;77.00;100304.83;227222;1211;138861;-73
2021/09/16 01:28:06;;;;;;;20.90;17.60;;;;;;;15.11;77.19;100302.89;226800;1206;138983;-72
2021/09/16 01:33:08;;;;;;;23.10;18.90;;;;;;;15.02;77.39;100308.38;226935;1210;139671;-73
2021/09/16 01:38:10;;;;;;;20.80;18.40;;;;;;;14.92;77.76;100300.95;227393;1210;139402;-74
2021/09/16 01:43:11;;;;;;;20.50;18.30;;;;;;;14.94;77.88;100299.05;226819;1210;138549;-71
2021/09/16 01:48:13;;;;;;;19.70;17.70;;;;;;;15.08;77.24;100288.77;226820;1210;138475;-73
2021/09/16 01:53:14;;;;;;;23.30;18.80;;;;;;;15.04;77.35;100286.13;226733;1210;138760;-74
2021/09/16 01:58:16;;;;;;;21.70;17.70;;;;;;;15.03;77.56;100278.83;227076;1205;139960;-74
2021/09/16 02:03:17;;;;;;;19.60;17.60;;;;;;;15.07;77.26;100276.23;226945;1201;139736;-73
2021/09/16 02:08:19;;;;;;;19.60;17.50;;;;;;;15.07;77.42;100274.50;227706;1201;138918;-73
2021/09/16 02:13:21;;;;;;;19.30;17.10;;;;;;;15.07;77.43;100269.55;227031;1202;139018;-74
2021/09/16 02:18:22;;;;;;;19.60;17.30;;;;;;;15.05;77.53;100264.53;227340;1201;139566;-74
2021/09/16 02:23:24;;;;;;;19.40;17.50;;;;;;;14.98;77.41;100261.40;227669;1202;139409;-70
2021/09/16 02:28:26;;;;;;;19.60;17.50;;;;;;;14.82;78.05;100256.20;227135;1201;139191;-75
2021/09/16 02:33:28;;;;;;;18.80;16.70;;;;;;;14.91;77.97;100248.92;226935;1202;138813;-73
2021/09/16 02:38:29;;;;;;;20.40;17.40;;;;;;;14.91;77.78;100243.27;226940;1206;138881;-72
2021/09/16 02:43:31;;;;;;;19.70;17.60;;;;;;;14.77;78.05;100236.45;226708;1210;139556;-73
2021/09/16 02:48:32;;;;;;;19.30;17.30;;;;;;;14.69;78.38;100239.80;226878;1210;139372;-74
2021/09/16 02:53:34;;;;;;;20.10;18.00;;;;;;;14.60;78.94;100240.42;226820;1209;139431;-73
2021/09/16 02:58:35;;;;;;;19.80;17.70;;;;;;;14.63;78.77;100232.16;226958;1210;138890;-73
2021/09/16 03:03:37;;;;;;;17.90;16.00;;;;;;;14.68;78.62;100230.27;226961;1209;139402;-73
2021/09/16 03:08:39;;;;;;;21.00;18.00;;;;;;;14.62;78.89;100235.98;226824;1209;139268;-73
2021/09/16 03:13:41;;;;;;;20.50;18.40;;;;;;;14.62;78.99;100232.27;226769;1209;139458;-73
2021/09/16 03:19:12;;;;;;;20.20;17.70;;;;;;;14.60;79.26;100229.95;227254;1212;634757;-73
2021/09/16 03:24:13;;;;;;;17.80;16.10;;;;;;;14.58;79.35;100224.73;229049;1200;138466;-74
2021/09/16 03:29:15;;;;;;;21.20;18.80;;;;;;;14.58;79.28;100219.73;229021;1199;137718;-72
2021/09/16 03:34:17;;;;;;;21.20;17.90;;;;;;;14.62;79.30;100214.75;229356;1200;137713;-75
2021/09/16 03:39:18;;;;;;;21.00;18.70;;;;;;;14.63;79.25;100211.77;228742;1199;141114;-72
2021/09/16 03:44:20;;;;;;;19.60;17.50;;;;;;;14.62;79.34;100211.73;228656;1200;137405;-74
2021/09/16 03:49:21;;;;;;;19.90;18.00;;;;;;;14.54;79.72;100205.73;228603;1193;138116;-73
2021/09/16 03:54:23;;;;;;;19.30;17.30;;;;;;;14.53;79.67;100204.64;228563;1200;138139;-72
2021/09/16 03:59:24;;;;;;;24.20;18.80;;;;;;;14.49;80.00;100208.44;228561;1200;138644;-74
2021/09/16 04:04:26;;;;;;;21.30;19.00;;;;;;;14.53;79.92;100201.31;228636;1200;138327;-73
2021/09/16 04:09:27;;;;;;;20.80;18.40;;;;;;;14.58;79.73;100196.00;228777;1198;138357;-73
2021/09/16 04:14:29;;;;;;;21.30;19.10;;;;;;;14.62;79.72;100195.15;229509;1192;137912;-74
2021/09/16 04:19:31;;;;;;;21.20;19.00;;;;;;;14.61;79.79;100190.52;229235;1199;138482;-73
2021/09/16 04:24:32;;;;;;;20.10;18.10;;;;;;;14.64;79.71;100192.86;229386;1200;138444;-73
2021/09/16 04:29:34;;;;;;;20.20;18.10;;;;;;;14.69;79.59;100187.80;229589;1199;138525;-73
2021/09/16 04:34:35;;;;;;;20.10;18.00;;;;;;;14.72;79.49;100192.91;228646;1198;138371;-74
2021/09/16 04:39:37;;;;;;;21.10;19.00;;;;;;;14.71;79.86;100195.73;228721;1196;137591;-74
2021/09/16 04:44:38;;;;;;;21.20;18.90;;;;;;;14.67;80.10;100194.96;228757;1196;138184;-74
2021/09/16 04:49:40;;;;;;;22.40;20.20;;;;;;;14.65;80.42;100197.11;228660;1196;137993;-75
2021/09/16 04:54:42;;;;;;;21.60;19.30;;;;;;;14.66;80.70;100199.66;229834;1197;138711;-73
2021/09/16 04:59:44;;;;;;;22.60;19.50;;;;;;;14.72;80.87;100192.21;228820;1184;138480;-73
2021/09/16 05:04:45;;;;;;;21.30;19.20;;;;;;;14.72;80.76;100191.84;229702;1193;138654;-74
2021/09/16 05:10:05;;;;;;;22.00;19.60;;;;;;;14.72;80.95;100189.19;230032;1193;138013;-73
2021/09/16 05:15:07;;;;;;;20.90;18.90;;;;;;;14.65;81.51;100197.64;230057;1198;138099;-74
2021/09/16 05:20:10;;;;;;;23.40;21.10;;;;;;;14.67;81.48;100192.77;229683;1193;138152;-70
2021/09/16 05:25:11;;;;;;;21.50;19.30;;;;;;;14.67;81.78;100186.98;230098;1193;139017;-73
2021/09/16 05:30:14;;;;;;;21.30;19.10;;;;;;;14.69;81.88;100179.58;230335;1193;138612;-72
2021/09/16 05:35:16;;;;;;;20.60;18.70;;;;;;;14.64;82.22;100171.49;230577;1193;138348;-73
2021/09/16 05:40:17;;;;;;;22.20;19.80;;;;;;;14.60;82.56;100159.61;229813;1193;151395;-73
2021/09/16 05:45:19;;;;;;;22.30;19.50;;;;;;;14.69;82.60;100141.71;229628;1193;138132;-73
2021/09/16 05:50:21;;;;;;;22.80;20.50;;;;;;;14.70;82.61;100143.11;229708;1193;138301;-74
2021/09/16 05:55:22;;;;;;;22.00;19.00;;;;;;;14.64;82.97;100149.31;229987;1193;138872;-73
2021/09/16 06:00:24;;;;;;;21.80;19.60;;;;;;;14.64;82.90;100155.11;230005;1193;138913;-73
2021/09/16 06:05:25;;;;;;;22.00;19.90;;;;;;;14.66;83.03;100166.69;230396;1193;138201;-75
2021/09/16 06:10:27;;;;;;;22.80;20.50;;;;;;;14.60;83.83;100170.48;228685;1193;799800;-74
2021/09/16 06:15:29;;;;;;;21.60;19.60;;;;;;;14.59;84.07;100165.64;230084;1193;138378;-72
2021/09/16 06:20:30;;;;;;;22.80;18.70;;;;;;;14.61;83.98;100166.58;229980;1192;138515;-72
2021/09/16 06:25:32;;;;;;;22.60;20.40;;;;;;;14.60;84.07;100167.13;229908;1193;138242;-75
2021/09/16 06:30:34;;;;;;;22.60;20.40;;;;;;;14.61;84.20;100172.48;229992;1193;138321;-73
2021/09/16 06:35:35;;;;;;;23.00;20.80;;;;;;;14.60;84.28;100170.98;229942;1194;138251;-73
2021/09/16 06:40:37;;;;;;;21.80;19.60;;;;;;;14.68;84.06;100165.60;229999;1193;138857;-74
2021/09/16 06:45:38;;;;;;;21.80;19.50;;;;;;;14.69;83.88;100167.05;230213;1193;138524;-72
2021/09/16 06:50:40;;;;;;;22.50;20.20;;;;;;;14.75;83.84;100165.37;229947;1193;138501;-73
2021/09/16 06:55:41;;;;;;;22.90;20.40;;;;;;;14.78;83.72;100176.37;230016;1193;138255;-73
2021/09/16 07:00:43;;;;;;;22.30;20.00;;;;;;;14.78;83.93;100167.07;230161;1193;138131;-72
2021/09/16 07:05:45;;;;;;;21.50;19.30;;;;;;;14.73;84.40;100161.94;230067;1193;138433;-75
2021/09/16 07:10:46;;;;;;;20.90;18.90;;;;;;;14.78;84.64;100163.40;230425;1193;138528;-74
2021/09/16 07:15:48;;;;;;;22.70;20.40;;;;;;;14.95;84.04;100159.63;230498;1193;140679;-73
2021/09/16 07:20:49;;;;;;;22.90;20.70;;;;;;;15.02;83.93;100155.40;230759;1193;138269;-74
2021/09/16 07:25:51;;;;;;;21.30;19.20;;;;;;;15.09;83.97;100157.73;229802;1193;137826;-75
2021/09/16 07:30:53;;;;;;;22.70;20.20;;;;;;;15.09;83.78;100153.27;230524;1193;138877;-74
2021/09/16 07:35:54;;;;;;;22.10;19.90;;;;;;;15.15;84.07;100153.05;230273;1193;138521;-75
2021/09/16 07:40:56;;;;;;;22.70;20.40;;;;;;;15.24;83.74;100156.63;230422;1193;138580;-73
2021/09/16 07:45:58;;;;;;;22.20;20.00;;;;;;;15.38;83.52;100155.17;230106;1193;231434;-74
2021/09/16 07:50:59;;;;;;;23.00;20.70;;;;;;;15.52;83.18;100147.27;230106;1193;138211;-74
2021/09/16 07:56:01;;;;;;;22.30;19.80;;;;;;;15.61;82.99;100157.55;230730;1193;138908;-73
2021/09/16 08:01:02;;;;;;;23.40;20.40;;;;;;;15.70;83.26;100153.76;229929;1193;138507;-70
2021/09/16 08:06:04;;;;;;;21.50;19.30;;;;;;;15.81;82.89;100161.04;229752;1193;138613;-74
2021/09/16 08:11:05;;;;;;;23.00;20.60;;;;;;;15.86;82.82;100163.54;229785;1196;138276;-74
2021/09/16 08:16:07;;;;;;;23.30;21.10;;;;;;;15.82;82.78;100166.79;230458;1193;138282;-73
2021/09/16 08:21:12;;;;;;;23.10;20.70;;;;;;;15.89;82.85;100166.03;229961;1193;139444;-74
2021/09/16 08:26:13;;;;;;;24.60;20.60;;;;;;;16.01;82.53;100161.10;230097;1193;138910;-73
2021/09/16 08:31:15;;;;;;;22.90;20.50;;;;;;;16.25;82.43;100159.95;230442;1193;138568;-73
2021/09/16 08:36:17;;;;;;;25.30;22.70;;;;;;;16.44;82.07;100155.39;230670;1193;138269;-74
2021/09/16 08:41:18;;;;;;;23.30;20.90;;;;;;;16.57;81.66;100158.63;230919;1193;138135;-74
2021/09/16 08:46:20;;;;;;;22.90;20.50;;;;;;;16.54;81.78;100157.62;230736;1193;138597;-74
2021/09/16 08:51:22;;;;;;;23.70;21.30;;;;;;;16.54;81.57;100152.64;230524;1193;138689;-73
2021/09/16 08:56:24;;;;;;;23.40;20.80;;;;;;;16.62;81.39;100143.58;230012;1193;139029;-74
2021/09/16 09:01:26;;;;;;;24.10;21.50;;;;;;;16.69;81.41;100138.07;229969;1193;138245;-71
2021/09/16 09:06:34;;;;;;;22.90;20.70;;;;;;;16.79;81.24;100124.66;230077;1187;138259;-73
2021/09/16 09:12:00;;;;;;;24.80;20.80;;;;;;;16.85;81.22;100121.55;229999;1193;138908;-74
2021/09/16 09:17:15;;;;;;;22.00;19.80;;;;;;;17.00;81.13;100118.90;230030;1193;139226;-73
2021/09/16 09:22:19;;;;;;;21.90;19.70;;;;;;;17.06;80.88;100123.85;230017;1193;138352;-73
2021/09/16 09:27:32;;;;;;;23.30;21.00;;;;;;;17.09;80.60;100133.95;230435;1193;138108;-75
2021/09/16 09:32:52;;;;;;;23.60;21.20;;;;;;;17.10;80.80;100136.45;230636;1193;138515;-73
2021/09/16 09:37:55;;;;;;;23.60;21.20;;;;;;;17.10;80.58;100134.59;230658;1193;138732;-73
2021/09/16 09:43:16;;;;;;;23.60;21.10;;;;;;;17.12;80.69;100134.37;230544;1193;139159;-74
2021/09/16 09:48:18;;;;;;;24.20;21.10;;;;;;;17.19;80.74;100127.48;230819;1193;138895;-75
2021/09/16 09:53:20;;;;;;;23.30;21.00;;;;;;;17.36;80.45;100126.20;230800;1193;138598;-73
2021/09/16 09:58:37;;;;;;;24.00;21.60;;;;;;;17.46;80.35;100126.50;231058;1193;137972;-74
2021/09/16 10:03:39;;;;;;;24.90;22.50;;;;;;;17.47;80.54;100124.85;229951;1196;137922;-72
2021/09/16 10:08:41;;;;;;;23.40;21.20;;;;;;;17.59;80.48;100120.22;230015;1193;138947;-75
2021/09/16 10:13:42;;;;;;;24.70;22.10;;;;;;;17.87;80.17;100127.34;229979;1194;138412;-73
2021/09/16 10:18:44;;;;;;;23.70;21.10;;;;;;;18.06;79.59;100125.23;229704;1193;138961;-74
2021/09/16 10:23:47;;;;;;;24.20;20.80;;;;;;;18.11;79.59;100126.28;230563;1193;138340;-73
2021/09/16 10:28:49;;;;;;;23.80;21.30;;;;;;;18.11;80.03;100134.14;230435;1193;137780;-74
2021/09/16 10:33:51;;;;;;;24.90;22.40;;;;;;;18.21;80.30;100124.98;230133;1196;138084;-72
2021/09/16 10:38:55;;;;;;;24.00;21.50;;;;;;;18.53;79.67;100122.92;229849;1193;139373;-72
2021/09/16 10:43:57;;;;;;;23.30;21.00;;;;;;;18.59;79.17;100132.04;230054;1193;138490;-74
2021/09/16 10:49:26;;;;;;;22.10;19.90;;;;;;;18.82;79.55;100137.33;229950;1193;139184;-72
2021/09/16 10:54:34;;;;;;;21.60;19.50;;;;;;;19.08;78.54;100130.35;229988;1193;138303;-73
2021/09/16 10:59:54;;;;;;;20.60;18.60;;;;;;;19.20;77.85;100131.63;229762;1193;138332;-73
2021/09/16 11:04:58;;;;;;;22.20;20.10;;;;;;;19.22;77.69;100129.34;230763;1193;138167;-72
2021/09/16 11:10:16;;;;;;;23.00;20.90;;;;;;;19.19;77.83;100127.36;230928;1193;138842;-73
2021/09/16 11:15:28;;;;;;;23.10;20.90;;;;;;;19.26;78.01;100131.27;230597;1192;138726;-74
2021/09/16 11:20:29;;;;;;;23.20;21.00;;;;;;;19.40;78.00;100130.48;230703;1193;138996;-73
2021/09/16 11:25:39;;;;;;;21.80;19.80;;;;;;;19.59;76.96;100123.67;230036;1193;138312;-75
2021/09/16 11:30:44;;;;;;;20.20;18.20;;;;;;;19.75;75.92;100116.65;230691;1191;138628;-72
2021/09/16 11:35:47;;;;;;;22.80;20.00;;;;;;;19.97;75.11;100112.08;229957;1193;138850;-74
2021/09/16 11:40:48;;;;;;;23.70;21.50;;;;;;;20.48;74.18;100105.42;230255;1193;138805;-73
2021/09/16 11:45:50;;;;;;;22.70;20.40;;;;;;;21.02;72.03;100098.70;230341;1187;138511;-74
2021/09/16 11:50:57;;;;;;;21.60;19.40;;;;;;;21.15;70.71;100091.09;230204;1192;138538;-75
2021/09/16 11:56:07;;;;;;;18.00;16.00;;;;;;;20.80;71.43;100083.63;230174;1200;138319;-72
2021/09/16 12:01:13;;;;;;;20.40;18.50;;;;;;;20.72;72.19;100077.48;230804;1192;139421;-74
2021/09/16 12:06:17;;;;;;;19.50;17.40;;;;;;;21.06;71.60;100072.10;230238;1197;139716;-71
2021/09/16 12:11:27;;;;;;;19.90;18.00;;;;;;;21.11;71.62;100066.74;230123;1193;141527;-74
2021/09/16 12:16:34;;;;;;;22.00;19.80;;;;;;;20.79;72.10;100061.20;230620;1192;138315;-74
2021/09/16 12:21:41;;;;;;;18.60;16.70;;;;;;;20.74;72.55;100058.59;230419;1193;139120;-73
2021/09/16 12:26:47;;;;;;;16.90;15.30;;;;;;;20.93;71.82;100057.26;230567;1193;139156;-74
2021/09/16 12:32:05;;;;;;;16.50;14.90;;;;;;;20.96;70.75;100054.65;230288;1193;138196;-74
2021/09/16 12:37:14;;;;;;;18.20;16.50;;;;;;;20.90;71.04;100049.27;230618;1193;138034;-73
2021/09/16 12:42:27;;;;;;;18.50;16.80;;;;;;;20.85;72.54;100048.44;230265;1193;139273;-75
2021/09/16 12:47:28;;;;;;;17.80;16.10;;;;;;;20.88;71.66;100047.13;229830;1196;138821;-75
2021/09/16 12:52:30;;;;;;;20.30;18.30;;;;;;;20.87;71.93;100045.81;230855;1193;138877;-76
2021/09/16 12:57:37;;;;;;;18.80;16.90;;;;;;;20.72;72.50;100041.14;230055;1194;139042;-74
2021/09/16 13:02:46;;;;;;;19.90;17.90;;;;;;;20.63;73.91;100035.99;229893;1193;139486;-73
2021/09/16 13:08:08;;;;;;;18.90;17.10;;;;;;;20.53;74.06;100030.47;229872;1193;138965;-76
2021/09/16 13:13:13;;;;;;;19.60;17.90;;;;;;;20.39;74.91;100034.95;230652;1193;138362;-75
2021/09/16 13:18:16;;;;;;;21.70;19.60;;;;;;;20.20;76.74;100030.34;230810;1193;138122;-73
2021/09/16 13:23:17;;;;;;;22.30;19.70;;;;;;;20.05;78.25;100034.23;230350;1193;138699;-74
2021/09/16 13:28:19;;;;;;;21.10;18.90;;;;;;;19.93;79.99;100039.58;230861;1193;139137;-71
2021/09/16 13:33:21;;;;;;;21.30;19.50;;;;;;;19.83;81.43;100040.58;230221;1193;138826;-73
2021/09/16 13:38:22;;;;;;;23.40;21.30;;;;;;;19.74;83.30;100049.91;229997;1193;138787;-74
2021/09/16 13:43:24;;;;;;;25.90;23.30;;;;;;;19.64;85.13;100056.65;230748;1193;138205;-74
2021/09/16 13:48:26;;;;;;;19.90;17.80;;;;;;;19.46;86.88;100080.29;229988;1193;138725;-74
2021/09/16 13:53:28;;;;;;;19.60;17.80;;;;;;;19.17;87.44;100086.11;230545;1193;139036;-74
2021/09/16 13:58:29;;;;;;;17.40;15.80;;;;;;;18.93;88.03;100073.49;230864;1190;139039;-74
2021/09/16 14:03:32;;;;;;;15.30;13.60;;;;;;;18.70;88.96;100065.23;229900;1193;139471;-73
2021/09/16 14:08:34;;;;;;;13.30;12.10;;;;;;;18.62;88.99;100058.14;230096;1192;139297;-74
2021/09/16 14:13:36;;;;;;;6.60;6.00;;;;;;;18.61;88.11;100053.08;230890;1193;139137;-74
2021/09/16 14:18:37;;;;;;;9.40;8.60;;;;;;;18.67;87.27;100056.39;230322;1201;138627;-73
2021/09/16 14:23:39;;;;;;;11.80;10.70;;;;;;;18.71;88.00;100056.35;229768;1196;138754;-73
2021/09/16 14:28:41;;;;;;;10.80;9.70;;;;;;;18.81;87.60;100065.53;229843;1193;139224;-73
2021/09/16 14:33:43;;;;;;;11.40;10.30;;;;;;;18.78;88.00;100073.21;229977;1200;139137;-74
2021/09/16 14:38:45;;;;;;;9.30;8.40;;;;;;;18.74;88.12;100070.42;231110;1193;139180;-75
2021/09/16 14:43:47;;;;;;;7.30;6.60;;;;;;;18.72;87.85;100066.98;230142;1194;139643;-74
2021/09/16 14:48:48;;;;;;;6.20;5.70;;;;;;;18.71;88.06;100066.48;230209;1199;138701;-75
2021/09/16 14:53:50;;;;;;;6.70;6.20;;;;;;;18.71;88.33;100063.34;230702;1193;138761;-74
2021/09/16 14:58:52;;;;;;;7.30;6.70;;;;;;;18.72;88.85;100055.68;230040;1193;138452;-74
2021/09/16 15:03:53;;;;;;;7.70;7.00;;;;;;;18.84;88.83;100054.35;230445;1192;139032;-73
2021/09/16 15:08:55;;;;;;;8.40;7.70;;;;;;;18.94;88.77;100055.10;230221;1180;138608;-73
2021/09/16 15:13:56;;;;;;;7.20;6.60;;;;;;;19.04;88.52;100050.05;229948;1193;138810;-73
2021/09/16 15:18:58;;;;;;;9.20;8.30;;;;;;;19.10;88.63;100044.83;230086;1193;138814;-72
2021/09/16 15:23:59;;;;;;;8.20;7.40;;;;;;;19.17;88.31;100041.14;230465;1193;138593;-74
2021/09/16 15:29:01;;;;;;;10.10;8.40;;;;;;;19.15;88.37;100046.06;230801;1193;138378;-74
2021/09/16 15:34:03;;;;;;;9.10;8.30;;;;;;;19.18;88.09;100051.14;230707;1193;139142;-74
2021/09/16 15:39:04;;;;;;;9.40;8.50;;;;;;;19.08;88.67;100053.08;229988;1197;138894;-74
2021/09/16 15:44:07;;;;;;;14.30;13.00;;;;;;;19.06;89.41;100061.34;230120;1193;138513;-72
2021/09/16 15:49:09;;;;;;;9.60;8.70;;;;;;;19.04;89.70;100058.30;230752;1177;139123;-73
2021/09/16 15:54:10;;;;;;;10.30;9.40;;;;;;;18.98;89.59;100057.23;230551;1193;138398;-76
2021/09/16 15:59:12;;;;;;;8.80;8.10;;;;;;;18.97;89.71;100054.20;230242;1193;139026;-75
2021/09/16 16:04:14;;;;;;;9.60;8.80;;;;;;;18.96;89.68;100054.89;230949;1193;139025;-73
2021/09/16 16:09:16;;;;;;;16.30;14.70;;;;;;;18.95;90.10;100062.06;230498;1193;139294;-77
2021/09/16 16:14:17;;;;;;;12.40;11.10;;;;;;;18.93;90.70;100064.80;230842;1193;139195;-75
2021/09/16 16:19:19;;;;;;;6.30;5.80;;;;;;;18.77;90.21;100068.98;230813;1194;139170;-75
2021/09/16 16:24:21;;;;;;;8.30;7.50;;;;;;;18.63;89.58;100060.86;230456;1194;138729;-75
2021/09/16 16:29:23;;;;;;;10.70;9.80;;;;;;;18.63;88.72;100058.33;230477;1193;138739;-74
2021/09/16 16:34:25;;;;;;;3.70;3.40;;;;;;;18.56;88.38;100061.59;230661;1193;138778;-75
2021/09/16 16:39:26;;;;;;;8.60;7.80;;;;;;;18.48;87.83;100065.25;230937;1192;138455;-73
2021/09/16 16:44:28;;;;;;;5.60;5.10;;;;;;;18.47;87.97;100068.59;229843;1193;138873;-73
2021/09/16 16:49:29;;;;;;;5.20;4.70;;;;;;;18.39;87.89;100065.74;230297;1199;138730;-73
2021/09/16 16:54:31;;;;;;;4.70;4.30;;;;;;;18.33;88.14;100068.52;230984;1193;138624;-74
2021/09/16 16:59:33;;;;;;;4.70;4.30;;;;;;;18.33;87.82;100070.66;230377;1187;138829;-74
2021/09/16 17:04:34;;;;;;;6.30;5.90;;;;;;;18.28;88.00;100071.76;230500;1193;138384;-74
2021/09/16 17:09:36;;;;;;;6.20;5.70;;;;;;;18.24;88.32;100079.20;229779;1195;138945;-75
2021/09/16 17:14:38;;;;;;;8.20;7.00;;;;;;;18.17;88.16;100079.33;230627;1193;139167;-73
2021/09/16 17:19:40;;;;;;;6.00;5.60;;;;;;;18.04;88.31;100081.65;231120;1194;140268;-74
2021/09/16 17:24:41;;;;;;;6.90;6.10;;;;;;;17.95;88.81;100079.33;231104;1193;139878;-74
2021/09/16 17:29:43;;;;;;;7.80;7.10;;;;;;;17.92;89.07;100079.55;231122;1194;138767;-74
2021/09/16 17:34:44;;;;;;;13.60;7.60;;;;;;;17.90;89.21;100082.75;230765;1193;140783;-75
2021/09/16 17:39:46;;;;;;;14.00;10.10;;;;;;;17.85;89.48;100085.14;231047;1193;139094;-75
2021/09/16 17:44:49;;;;;;;8.90;7.60;;;;;;;17.83;89.41;100093.74;229802;1196;140226;-75
2021/09/16 17:49:51;;;;;;;9.30;8.40;;;;;;;17.81;89.49;100093.87;229989;1197;138555;-74
2021/09/16 17:54:52;;;;;;;10.70;8.90;;;;;;;17.77;89.44;100093.30;230441;1193;138755;-75
2021/09/16 17:59:54;;;;;;;9.90;9.10;;;;;;;17.75;89.30;100095.05;230051;1197;138799;-74
2021/09/16 18:04:56;;;;;;;10.00;9.00;;;;;;;17.62;89.76;100099.92;230266;1193;138891;-74
2021/09/16 18:09:57;;;;;;;10.50;9.60;;;;;;;17.62;89.71;100097.30;229959;1194;138928;-73
2021/09/16 18:14:59;;;;;;;12.00;10.70;;;;;;;17.67;89.34;100100.06;229923;1193;138645;-73
2021/09/16 18:20:02;;;;;;;12.80;11.40;;;;;;;17.68;89.04;100098.66;230510;1193;139052;-74
2021/09/16 18:25:05;;;;;;;11.90;10.60;;;;;;;17.66;89.06;100097.51;230250;1193;139590;-73
2021/09/16 18:30:09;;;;;;;10.90;10.00;;;;;;;17.63;89.11;100096.48;229780;1193;138627;-73
2021/09/16 18:35:10;;;;;;;12.50;11.30;;;;;;;17.63;89.30;100094.88;230071;1193;139864;-75
2021/09/16 18:40:13;;;;;;;11.40;10.30;;;;;;;17.66;89.19;100096.73;230273;1193;138849;-76
2021/09/16 18:45:16;;;;;;;12.20;11.10;;;;;;;17.62;89.29;100090.41;230935;1193;139208;-74
2021/09/16 18:50:20;;;;;;;13.20;12.00;;;;;;;17.64;89.57;100092.41;230734;1193;138937;-75
2021/09/16 18:55:23;;;;;;;13.10;11.90;;;;;;;17.69;89.14;100090.48;230797;1193;139173;-77
2021/09/16 19:00:24;;;;;;;13.90;12.60;;;;;;;17.63;89.24;100087.52;230951;1193;139043;-77
2021/09/16 19:05:26;;;;;;;13.30;12.10;;;;;;;17.66;89.17;100092.58;230981;1193;139771;-78
2021/09/16 19:10:28;;;;;;;13.10;11.90;;;;;;;17.62;89.10;100089.95;230720;1193;139903;-75
2021/09/16 19:15:29;;;;;;;13.60;12.40;;;;;;;17.60;89.16;100091.23;230757;1193;139122;-75
2021/09/16 19:20:31;;;;;;;16.00;14.40;;;;;;;17.60;89.17;100088.15;230958;1193;139844;-75
2021/09/16 19:25:33;;;;;;;14.00;12.80;;;;;;;17.62;89.07;100085.21;230900;1193;139997;-76
2021/09/16 19:30:38;;;;;;;14.90;13.20;;;;;;;17.64;88.87;100087.23;230539;1193;139312;-75
2021/09/16 19:35:39;;;;;;;15.50;13.90;;;;;;;17.61;89.12;100086.21;230270;1193;139189;-76
2021/09/16 19:40:41;;;;;;;14.80;13.20;;;;;;;17.70;88.89;100079.38;230975;1193;139056;-74
2021/09/16 19:45:43;;;;;;;15.00;13.70;;;;;;;17.73;88.74;100076.08;230919;1193;139021;-73
2021/09/16 19:50:44;;;;;;;15.60;14.10;;;;;;;17.65;88.87;100076.84;229680;1193;139510;-75
2021/09/16 19:55:46;;;;;;;20.60;18.60;;;;;;;17.56;89.33;100080.33;230615;1193;139070;-75
2021/09/16 20:00:48;;;;;;;17.70;15.80;;;;;;;17.51;89.67;100082.02;229937;1200;138778;-74
2021/09/16 20:05:49;;;;;;;19.50;16.10;;;;;;;17.54;89.72;100081.44;230665;1193;139075;-75
2021/09/16 20:10:52;;;;;;;16.60;15.00;;;;;;;17.53;89.75;100076.63;230681;1193;138731;-74
2021/09/16 20:15:53;;;;;;;18.30;16.30;;;;;;;17.51;89.77;100071.78;230104;1194;138984;-73
2021/09/16 20:20:55;;;;;;;17.00;15.40;;;;;;;17.52;89.69;100077.13;230715;1193;209528;-74
2021/09/16 20:25:56;;;;;;;17.10;15.50;;;;;;;17.47;89.94;100076.91;230714;1194;139630;-74
2021/09/16 20:30:59;;;;;;;17.10;15.30;;;;;;;17.46;89.92;100078.65;229699;1193;138736;-75
2021/09/16 20:36:00;;;;;;;17.70;16.00;;;;;;;17.45;90.06;100082.92;230777;1193;138692;-75
2021/09/16 20:41:02;;;;;;;19.90;18.10;;;;;;;17.48;90.04;100083.73;231047;1177;139577;-74
2021/09/16 20:46:04;;;;;;;20.20;18.30;;;;;;;17.54;90.00;100084.69;231352;1193;138654;-74
2021/09/16 20:51:05;;;;;;;18.50;16.70;;;;;;;17.57;89.91;100081.11;231038;1193;138608;-74
2021/09/16 20:56:08;;;;;;;17.00;15.30;;;;;;;17.54;89.96;100090.73;230786;1193;139535;-75
2021/09/16 21:01:09;;;;;;;15.50;13.90;;;;;;;17.53;90.29;100088.18;230903;1193;139546;-76
2021/09/16 21:06:11;;;;;;;14.60;13.20;;;;;;;17.48;90.48;100095.95;230924;1193;139372;-77
2021/09/16 21:11:12;;;;;;;14.30;12.50;;;;;;;17.41;90.70;100096.36;230559;1193;140004;-78
2021/09/16 21:16:14;;;;;;;11.30;10.20;;;;;;;17.36;91.09;100100.42;230767;1193;138670;-74
2021/09/16 21:21:16;;;;;;;12.00;10.90;;;;;;;17.34;91.32;100098.48;230404;1193;138968;-73
2021/09/16 21:26:17;;;;;;;13.40;12.10;;;;;;;17.32;91.30;100098.33;230017;1197;138674;-74
2021/09/16 21:31:20;;;;;;;12.90;11.70;;;;;;;17.29;91.49;100099.77;230111;1193;139061;-73
2021/09/16 21:36:21;;;;;;;12.30;11.00;;;;;;;17.26;91.82;100096.60;229617;1193;138776;-72
2021/09/16 21:41:23;;;;;;;12.40;11.20;;;;;;;17.28;91.84;100097.96;230241;1193;138921;-73
2021/09/16 21:46:24;;;;;;;15.00;11.90;;;;;;;17.35;91.65;100093.77;230268;1197;139713;-75
2021/09/16 21:51:26;;;;;;;13.70;12.30;;;;;;;17.45;91.34;100092.13;230891;1193;139022;-74
2021/09/16 21:56:28;;;;;;;11.70;10.50;;;;;;;17.49;90.89;100091.06;230280;1193;139296;-71
2021/09/16 22:01:29;;;;;;;13.00;11.30;;;;;;;17.48;90.63;100097.84;229888;1193;139284;-72
2021/09/16 22:06:31;;;;;;;14.70;13.30;;;;;;;17.42;90.69;100103.80;230145;1193;138836;-74
2021/09/16 22:11:34;;;;;;;11.80;10.80;;;;;;;17.38;90.84;100104.24;229947;1193;140013;-74
2021/09/16 22:16:36;;;;;;;12.90;11.70;;;;;;;17.32;90.95;100106.71;229696;1201;139374;-75
2021/09/16 22:21:38;;;;;;;13.00;11.80;;;;;;;17.30;91.06;100104.81;229824;1193;139611;-74
2021/09/16 22:26:39;;;;;;;15.90;14.40;;;;;;;17.25;91.11;100104.40;230121;1186;138791;-73
2021/09/16 22:31:41;;;;;;;12.10;10.90;;;;;;;17.24;91.13;100105.39;229683;1193;139054;-70